createdAt,value
2019-01-05T00:00:11.968Z,17.97
2019-01-05T00:03:08.404Z,18.00
2019-01-05T00:05:56.430Z,15.70
2019-01-05T00:08:44.692Z,16.63
2019-01-05T00:11:36.036Z,19.03
2019-01-05T00:14:27.378Z,16.37
2019-01-05T00:17:17.013Z,18.97
2019-01-05T00:20:10.670Z,18.80
2019-01-05T00:23:00.197Z,16.57
2019-01-05T00:25:50.627Z,17.40
2019-01-05T00:28:46.291Z,19.73
2019-01-05T00:31:35.627Z,18.50
2019-01-05T00:34:26.362Z,19.83
2019-01-05T00:37:28.625Z,17.63
2019-01-05T00:40:24.840Z,18.17
2019-01-05T00:43:23.470Z,18.83
2019-01-05T00:46:11.472Z,18.67
2019-01-05T00:49:03.486Z,16.53
2019-01-05T00:52:08.346Z,20.03
2019-01-05T00:55:16.588Z,19.00
2019-01-05T00:58:09.148Z,18.93
2019-01-05T01:01:17.006Z,20.77
2019-01-05T01:04:04.094Z,20.43
2019-01-05T01:07:06.178Z,18.50
2019-01-05T01:10:07.916Z,16.63
2019-01-05T01:12:55.987Z,19.43
2019-01-05T01:15:49.284Z,19.57
2019-01-05T01:18:53.645Z,19.43
2019-01-05T01:21:39.855Z,17.10
2019-01-05T01:24:38.369Z,16.90
2019-01-05T01:27:26.699Z,18.60
2019-01-05T01:30:15.708Z,19.37
2019-01-05T01:33:07.421Z,18.43
2019-01-05T01:35:55.671Z,18.23
2019-01-05T01:38:46.248Z,19.37
2019-01-05T01:41:46.321Z,17.23
2019-01-05T01:44:36.637Z,16.27
2019-01-05T01:47:38.790Z,18.67
2019-01-05T01:50:36.481Z,18.83
2019-01-05T01:53:28.195Z,19.27
2019-01-05T01:56:21.379Z,19.83
2019-01-05T01:59:11.435Z,17.97
2019-01-05T02:02:01.123Z,17.40
2019-01-05T02:04:49.964Z,17.07
2019-01-05T02:07:42.723Z,14.57
2019-01-05T02:10:48.644Z,17.90
2019-01-05T02:13:40.552Z,15.20
2019-01-05T02:16:43.586Z,16.13
2019-01-05T02:19:49.808Z,16.73
2019-01-05T02:23:22.921Z,16.03
2019-01-05T02:26:42.637Z,17.37
2019-01-05T02:30:02.648Z,16.53
2019-01-05T02:34:06.226Z,16.30
2019-01-05T02:37:31.282Z,15.37
2019-01-05T02:41:27.212Z,15.53
2019-01-05T02:44:49.520Z,15.63
2019-01-05T02:48:13.885Z,14.63
2019-01-05T02:51:48.774Z,15.43
2019-01-05T02:55:19.221Z,14.03
2019-01-05T02:58:41.026Z,14.77
2019-01-05T03:02:01.895Z,12.97
2019-01-05T03:05:10.790Z,16.35
2019-01-05T03:08:38.535Z,14.23
2019-01-05T03:12:10.520Z,14.30
2019-01-05T03:15:32.162Z,15.83
2019-01-05T03:18:58.722Z,13.87
2019-01-05T03:22:46.361Z,15.77
2019-01-05T03:26:31.763Z,13.33
2019-01-05T03:30:13.470Z,15.60
2019-01-05T03:33:54.823Z,15.83
2019-01-05T03:37:34.144Z,15.08
2019-01-05T03:41:06.112Z,14.90
2019-01-05T03:44:30.350Z,14.70
2019-01-05T03:47:55.358Z,14.53
2019-01-05T03:51:31.983Z,16.23
2019-01-05T03:55:08.018Z,14.20
2019-01-05T03:58:27.041Z,17.30
2019-01-05T04:02:27.581Z,18.07
2019-01-05T04:05:40.099Z,15.33
2019-01-05T04:09:09.797Z,17.50
2019-01-05T04:12:46.509Z,17.17
2019-01-05T04:16:34.824Z,16.00
2019-01-05T04:20:06.740Z,16.50
2019-01-05T04:23:13.384Z,15.53
2019-01-05T04:26:49.375Z,14.50
2019-01-05T04:30:18.562Z,17.23
2019-01-05T04:33:53.825Z,13.40
2019-01-05T04:37:18.815Z,14.27
2019-01-05T04:40:36.707Z,16.87
2019-01-05T04:43:52.295Z,14.53
2019-01-05T04:47:30.451Z,13.93
2019-01-05T04:50:54.105Z,14.70
2019-01-05T04:54:37.703Z,16.00
2019-01-05T04:58:22.661Z,15.03
2019-01-05T05:01:54.067Z,14.50
2019-01-05T05:05:15.439Z,13.90
2019-01-05T05:08:56.593Z,14.47
2019-01-05T05:12:17.733Z,15.23
2019-01-05T05:15:55.663Z,13.10
2019-01-05T05:19:26.748Z,15.27
2019-01-05T05:23:08.965Z,14.80
2019-01-05T05:26:56.193Z,17.13
2019-01-05T05:30:23.202Z,13.97
2019-01-05T05:33:51.282Z,14.40
2019-01-05T05:37:31.661Z,12.17
2019-01-05T05:40:55.297Z,15.07
2019-01-05T05:44:35.536Z,14.93
2019-01-05T05:48:00.669Z,11.70
2019-01-05T05:54:42.735Z,15.03
2019-01-05T05:58:16.515Z,15.40
2019-01-05T06:01:54.344Z,15.77
2019-01-05T06:05:25.337Z,13.47
2019-01-05T06:08:52.007Z,14.13
2019-01-05T06:12:17.867Z,14.93
2019-01-05T06:15:36.741Z,12.37
2019-01-05T06:19:02.168Z,11.90
2019-01-05T06:22:46.207Z,11.83
2019-01-05T06:26:33.669Z,13.47
2019-01-05T06:30:21.411Z,14.57
2019-01-05T06:34:20.865Z,12.80
2019-01-05T06:37:56.053Z,11.73
2019-01-05T06:41:49.993Z,12.47
2019-01-05T06:45:31.490Z,10.73
2019-01-05T06:48:51.176Z,12.33
2019-01-05T06:52:35.171Z,13.47
2019-01-05T06:56:09.599Z,12.73
2019-01-05T06:59:46.942Z,11.93
2019-01-05T07:03:23.141Z,10.27
2019-01-05T07:07:01.104Z,12.17
2019-01-05T07:10:26.846Z,11.70
2019-01-05T07:14:17.206Z,12.93
2019-01-05T07:17:41.182Z,11.90
2019-01-05T07:21:12.148Z,12.87
2019-01-05T07:24:47.484Z,13.87
2019-01-05T07:28:14.317Z,13.30
2019-01-05T07:31:44.450Z,12.10
2019-01-05T07:35:23.129Z,13.70
2019-01-05T07:38:46.532Z,14.47
2019-01-05T07:42:11.438Z,14.17
2019-01-05T07:45:41.982Z,13.53
2019-01-05T07:49:00.007Z,12.47
2019-01-05T07:52:23.315Z,13.70
2019-01-05T07:56:00.366Z,12.23
2019-01-05T07:59:34.112Z,13.53
2019-01-05T08:03:05.657Z,12.73
2019-01-05T08:06:24.822Z,13.37
2019-01-05T08:09:53.399Z,11.23
2019-01-05T08:13:20.236Z,13.83
2019-01-05T08:16:49.025Z,14.63
2019-01-05T08:20:22.255Z,12.57
2019-01-05T08:23:53.845Z,12.43
2019-01-05T08:27:43.106Z,13.23
2019-01-05T08:31:05.710Z,15.07
2019-01-05T08:34:52.357Z,12.90
2019-01-05T08:38:15.658Z,12.67
2019-01-05T08:41:48.477Z,15.07
2019-01-05T08:45:19.321Z,14.63
2019-01-05T08:48:36.191Z,12.90
2019-01-05T08:52:16.276Z,15.73
2019-01-05T08:56:09.475Z,14.83
2019-01-05T08:59:38.730Z,13.57
2019-01-05T09:03:20.883Z,15.10
2019-01-05T09:07:05.053Z,15.70
2019-01-05T09:10:32.919Z,13.07
2019-01-05T09:13:45.686Z,14.37
2019-01-05T09:17:22.861Z,14.67
2019-01-05T09:20:52.702Z,15.07
2019-01-05T09:24:32.882Z,14.73
2019-01-05T09:28:24.244Z,13.90
2019-01-05T09:31:40.354Z,14.10
2019-01-05T09:35:11.422Z,12.57
2019-01-05T09:39:14.561Z,13.70
2019-01-05T09:42:56.045Z,15.87
2019-01-05T09:46:43.201Z,12.10
2019-01-05T09:49:59.955Z,13.75
2019-01-05T09:53:23.491Z,13.90
2019-01-05T09:56:47.643Z,16.07
2019-01-05T10:00:24.404Z,14.97
2019-01-05T10:04:12.380Z,15.00
2019-01-05T10:08:01.926Z,13.27
2019-01-05T10:11:45.658Z,13.40
2019-01-05T10:15:15.925Z,14.07
2019-01-05T10:18:53.979Z,14.10
2019-01-05T10:22:41.911Z,14.30
2019-01-05T10:26:23.187Z,14.03
2019-01-05T10:30:05.726Z,15.47
2019-01-05T10:33:41.935Z,17.27
2019-01-05T10:36:58.124Z,18.10
2019-01-05T10:40:36.621Z,17.73
2019-01-05T10:44:01.971Z,16.60
2019-01-05T10:47:05.783Z,17.23
2019-01-05T10:50:45.920Z,20.50
2019-01-05T10:54:07.222Z,20.80
2019-01-05T10:57:32.348Z,16.90
2019-01-05T11:01:20.913Z,17.87
2019-01-05T11:04:40.636Z,19.90
2019-01-05T11:07:45.585Z,15.80
2019-01-05T11:11:18.380Z,16.57
2019-01-05T11:14:48.271Z,17.37
2019-01-05T11:18:00.915Z,17.67
2019-01-05T11:21:13.125Z,17.80
2019-01-05T11:24:44.498Z,20.37
2019-01-05T11:28:16.658Z,19.57
2019-01-05T11:31:52.957Z,21.00
2019-01-05T11:35:34.967Z,19.27
2019-01-05T11:39:10.438Z,22.07
2019-01-05T11:42:45.592Z,21.70
2019-01-05T11:45:56.563Z,22.63
2019-01-05T11:49:29.572Z,23.67
2019-01-05T11:52:47.065Z,24.27
2019-01-05T11:56:10.474Z,22.87
2019-01-05T11:59:47.571Z,25.00
2019-01-05T12:03:18.151Z,22.53
2019-01-05T12:06:40.270Z,20.50
2019-01-05T12:10:12.336Z,25.20
2019-01-05T12:14:03.626Z,22.30
2019-01-05T12:17:31.306Z,19.27
2019-01-05T12:21:00.235Z,20.47
2019-01-05T12:24:28.736Z,20.73
2019-01-05T12:28:23.131Z,19.30
2019-01-05T12:32:10.844Z,18.30
2019-01-05T12:35:47.704Z,18.03
2019-01-05T12:39:44.564Z,19.50
2019-01-05T12:43:29.881Z,20.57
2019-01-05T12:46:47.478Z,17.53
2019-01-05T12:50:22.689Z,16.23
2019-01-05T12:53:39.601Z,16.60
2019-01-05T12:57:09.589Z,16.57
2019-01-05T13:00:50.901Z,16.63
2019-01-05T13:04:28.925Z,15.53
2019-01-05T13:08:02.382Z,16.10
2019-01-05T13:11:35.900Z,15.90
2019-01-05T13:14:55.439Z,16.10
2019-01-05T13:18:39.137Z,17.37
2019-01-05T13:21:55.781Z,15.93
2019-01-05T13:25:20.450Z,13.63
2019-01-05T13:29:17.306Z,14.67
2019-01-05T13:32:48.744Z,16.03
2019-01-05T13:36:32.299Z,11.43
2019-01-05T13:39:47.677Z,14.23
2019-01-05T13:43:24.183Z,12.30
2019-01-05T13:47:17.362Z,14.27
2019-01-05T13:50:42.113Z,12.05
2019-01-05T13:53:50.723Z,15.47
2019-01-05T13:56:53.845Z,12.87
2019-01-05T13:59:52.413Z,13.90
2019-01-05T14:02:51.486Z,14.97
2019-01-05T14:05:42.979Z,15.50
2019-01-05T14:08:38.376Z,13.63
2019-01-05T14:11:26.255Z,14.77
2019-01-05T14:14:26.047Z,14.67
2019-01-05T14:17:27.617Z,15.20
2019-01-05T14:20:31.892Z,17.57
2019-01-05T14:23:26.937Z,14.47
2019-01-05T14:26:13.351Z,14.87
2019-01-05T14:29:01.608Z,15.23
2019-01-05T14:31:49.656Z,16.10
2019-01-05T14:34:41.957Z,15.53
2019-01-05T14:37:23.267Z,15.90
2019-01-05T14:40:15.645Z,16.30
2019-01-05T14:43:03.766Z,17.20
2019-01-05T14:45:53.542Z,14.53
2019-01-05T14:48:42.474Z,13.27
2019-01-05T14:51:38.461Z,14.43
2019-01-05T14:54:26.253Z,14.53
2019-01-05T14:57:15.798Z,13.57
2019-01-05T15:00:04.231Z,15.87
2019-01-05T15:02:57.563Z,16.03
2019-01-05T15:05:56.218Z,17.80
2019-01-05T15:08:44.372Z,14.90
2019-01-05T15:11:46.071Z,14.77
2019-01-05T15:14:35.623Z,16.37
2019-01-05T15:17:23.641Z,16.10
2019-01-05T15:20:22.348Z,21.17
2019-01-05T15:23:11.245Z,17.33
2019-01-05T15:26:00.551Z,13.47
2019-01-05T15:28:49.830Z,16.13
2019-01-05T15:31:41.904Z,14.90
2019-01-05T15:34:29.804Z,11.50
2019-01-05T15:37:17.962Z,11.10
2019-01-05T15:40:06.316Z,14.40
2019-01-05T15:42:59.815Z,12.07
2019-01-05T15:46:05.357Z,12.60
2019-01-05T15:49:04.164Z,12.17
2019-01-05T15:52:05.611Z,11.10
2019-01-05T15:54:54.790Z,10.87
2019-01-05T15:57:42.893Z,10.90
2019-01-05T16:00:44.677Z,11.30
2019-01-05T16:03:40.539Z,9.20
2019-01-05T16:06:45.199Z,8.00
2019-01-05T16:09:40.714Z,7.67
2019-01-05T16:12:36.013Z,7.37
2019-01-05T16:15:37.825Z,7.23
2019-01-05T16:18:25.912Z,8.60
2019-01-05T16:21:13.938Z,7.57
2019-01-05T16:24:03.471Z,8.47
2019-01-05T16:26:47.309Z,8.20
2019-01-05T16:29:42.836Z,7.80
2019-01-05T16:32:31.693Z,6.73
2019-01-05T16:35:24.854Z,7.70
2019-01-05T16:38:08.424Z,7.90
2019-01-05T16:41:00.861Z,8.03
2019-01-05T16:43:51.173Z,8.03
2019-01-05T16:46:39.182Z,8.10
2019-01-05T16:49:28.654Z,6.13
2019-01-05T16:52:18.255Z,7.03
2019-01-05T16:55:06.709Z,6.53
2019-01-05T16:57:54.811Z,6.63
2019-01-05T17:00:53.322Z,6.53
2019-01-05T17:03:55.250Z,5.93
2019-01-05T17:06:36.086Z,6.57
2019-01-05T17:09:39.607Z,6.20
2019-01-05T17:12:32.027Z,7.27
2019-01-05T17:15:30.612Z,5.47
2019-01-05T17:18:25.921Z,6.70
2019-01-05T17:21:14.224Z,7.57
2019-01-05T17:24:06.232Z,6.17
2019-01-05T17:27:04.212Z,5.13
2019-01-05T17:29:56.162Z,6.20
2019-01-05T17:32:44.523Z,9.07
2019-01-05T17:35:32.457Z,6.63
2019-01-05T17:38:21.492Z,7.03
2019-01-05T17:41:10.013Z,5.40
2019-01-05T17:44:14.744Z,5.77
2019-01-05T17:47:04.349Z,5.03
2019-01-05T17:49:53.405Z,5.20
2019-01-05T17:52:54.999Z,5.33
2019-01-05T17:55:43.135Z,6.03
2019-01-05T17:58:32.347Z,5.73
2019-01-05T18:01:33.251Z,7.07
2019-01-05T18:04:41.042Z,6.23
2019-01-05T18:07:45.727Z,4.57
2019-01-05T18:10:38.151Z,4.70
2019-01-05T18:13:31.840Z,4.20
2019-01-05T18:16:33.081Z,4.83
2019-01-05T18:19:21.164Z,4.87
2019-01-05T18:22:09.380Z,5.53
2019-01-05T18:25:16.958Z,6.00
2019-01-05T18:28:09.591Z,5.87
2019-01-05T18:31:01.697Z,6.63
2019-01-05T18:33:50.901Z,5.73
2019-01-05T18:36:36.311Z,4.83
2019-01-05T18:39:30.082Z,4.10
2019-01-05T18:42:17.913Z,4.90
2019-01-05T18:45:12.916Z,5.03
2019-01-05T18:48:01.069Z,6.50
2019-01-05T18:50:53.152Z,5.37
2019-01-05T18:53:55.376Z,6.40
2019-01-05T18:56:56.584Z,5.30
2019-01-05T18:59:48.948Z,4.47
2019-01-05T19:02:32.622Z,4.30
2019-01-05T19:05:40.322Z,7.90
2019-01-05T19:08:28.550Z,4.40
2019-01-05T19:11:27.871Z,5.53
2019-01-05T19:14:22.998Z,4.87
2019-01-05T19:17:13.536Z,4.30
2019-01-05T19:20:03.539Z,5.57
2019-01-05T19:23:02.137Z,5.30
2019-01-05T19:25:52.758Z,4.70
2019-01-05T19:28:48.331Z,5.40
2019-01-05T19:31:52.903Z,6.85
2019-01-05T19:34:54.350Z,5.27
2019-01-05T19:37:42.666Z,4.63
2019-01-05T19:40:48.024Z,4.47
2019-01-05T19:43:52.449Z,6.00
2019-01-05T19:46:41.051Z,6.80
2019-01-05T19:49:30.019Z,6.03
2019-01-05T19:52:18.465Z,4.83
2019-01-05T19:55:08.556Z,6.13
2019-01-05T19:57:58.032Z,4.77
2019-01-05T20:00:56.211Z,5.30
2019-01-05T20:04:02.310Z,5.53
2019-01-05T20:06:50.640Z,4.77
2019-01-05T20:09:38.524Z,5.20
2019-01-05T20:12:26.867Z,5.00
2019-01-05T20:15:14.668Z,5.67
2019-01-05T20:18:07.342Z,6.27
2019-01-05T20:20:56.479Z,5.50
2019-01-05T20:23:42.982Z,4.83
2019-01-05T20:26:35.809Z,5.03
2019-01-05T20:29:37.061Z,5.10
2019-01-05T20:32:35.482Z,4.90
2019-01-05T20:35:23.651Z,5.87
2019-01-05T20:38:20.123Z,5.70
2019-01-05T20:41:18.680Z,4.20
2019-01-05T20:44:11.179Z,4.13
2019-01-05T20:46:59.501Z,5.70
2019-01-05T20:49:48.661Z,5.90
2019-01-05T20:52:45.686Z,4.93
2019-01-05T20:55:38.086Z,5.37
2019-01-05T20:58:26.254Z,5.03
2019-01-05T21:01:14.365Z,5.20
2019-01-05T21:04:00.128Z,4.30
2019-01-05T21:06:52.395Z,4.87
2019-01-05T21:09:37.800Z,7.23
2019-01-05T21:12:30.029Z,4.40
2019-01-05T21:15:22.228Z,5.47
2019-01-05T21:18:10.020Z,6.00
2019-01-05T21:21:02.475Z,7.00
2019-01-05T21:23:56.715Z,6.80
2019-01-05T21:26:44.941Z,5.60
2019-01-05T21:29:52.514Z,5.63
2019-01-05T21:32:37.509Z,5.13
2019-01-05T21:35:38.821Z,5.50
2019-01-05T21:38:35.337Z,5.30
2019-01-05T21:41:30.743Z,9.03
2019-01-05T21:44:32.392Z,12.10
2019-01-05T21:47:30.671Z,9.67
2019-01-05T21:50:19.737Z,6.40
2019-01-05T21:53:05.282Z,7.23
2019-01-05T21:56:03.449Z,5.60
2019-01-05T21:58:52.068Z,5.30
2019-01-05T22:01:41.278Z,10.77
2019-01-05T22:04:36.427Z,5.70
2019-01-05T22:07:18.760Z,6.20
2019-01-05T22:10:01.351Z,5.57
2019-01-05T22:12:49.249Z,6.80
2019-01-05T22:15:31.582Z,5.17
2019-01-05T22:18:19.485Z,6.70
2019-01-05T22:21:03.565Z,5.50
2019-01-05T22:24:03.188Z,4.57
2019-01-05T22:26:58.538Z,5.23
2019-01-05T22:29:56.480Z,5.77
2019-01-05T22:32:41.563Z,4.67
2019-01-05T22:35:33.754Z,5.03
2019-01-05T22:38:25.969Z,5.10
2019-01-05T22:41:15.184Z,4.70
2019-01-05T22:44:07.350Z,5.73
2019-01-05T22:46:55.451Z,5.10
2019-01-05T22:49:43.675Z,6.10
2019-01-05T22:52:31.848Z,6.73
2019-01-05T22:55:20.093Z,7.63
2019-01-05T22:58:09.053Z,6.40
2019-01-05T23:00:57.284Z,6.70
2019-01-05T23:03:45.512Z,6.10
2019-01-05T23:06:31.529Z,5.87
2019-01-05T23:09:31.479Z,6.30
2019-01-05T23:12:26.755Z,5.50
2019-01-05T23:15:07.965Z,7.67
2019-01-05T23:17:56.235Z,5.83
2019-01-05T23:20:48.604Z,6.90
2019-01-05T23:23:32.837Z,5.93
2019-01-05T23:26:16.565Z,8.00
2019-01-05T23:29:14.558Z,7.03
2019-01-05T23:32:15.770Z,7.17
2019-01-05T23:35:04.777Z,6.63
2019-01-05T23:38:06.127Z,5.87
2019-01-05T23:40:54.133Z,6.60
2019-01-05T23:43:45.110Z,6.80
2019-01-05T23:46:29.985Z,6.77
2019-01-05T23:49:13.309Z,6.70
2019-01-05T23:52:05.406Z,6.77
2019-01-05T23:54:54.917Z,7.03
2019-01-05T23:57:43.738Z,5.63
